createdAt,value
2017-09-20T00:00:54.848Z,971.51
2017-09-20T00:01:54.842Z,971.51
2017-09-20T00:02:54.833Z,971.47
2017-09-20T00:03:54.827Z,971.48
2017-09-20T00:04:54.821Z,971.47
2017-09-20T00:05:54.819Z,971.43
2017-09-20T00:06:54.809Z,971.43
2017-09-20T00:07:54.803Z,971.46
2017-09-20T00:08:54.797Z,971.45
2017-09-20T00:09:54.791Z,971.47
2017-09-20T00:10:54.785Z,971.46
2017-09-20T00:11:54.779Z,971.43
2017-09-20T00:12:54.771Z,971.46
2017-09-20T00:13:54.766Z,971.48
2017-09-20T00:14:54.760Z,971.45
2017-09-20T00:15:54.753Z,971.49
2017-09-20T00:16:54.747Z,971.48
2017-09-20T00:17:54.743Z,971.45
2017-09-20T00:18:54.735Z,971.44
2017-09-20T00:19:54.728Z,971.46
2017-09-20T00:20:54.722Z,971.44
2017-09-20T00:21:54.716Z,971.45
2017-09-20T00:22:54.711Z,971.48
2017-09-20T00:23:54.702Z,971.41
2017-09-20T00:24:54.697Z,971.44
2017-09-20T00:25:54.692Z,971.4
2017-09-20T00:26:54.685Z,971.43
2017-09-20T00:27:54.679Z,971.41
2017-09-20T00:28:54.674Z,971.43
2017-09-20T00:29:54.665Z,971.43
2017-09-20T00:30:54.660Z,971.42
2017-09-20T00:31:54.655Z,971.42
2017-09-20T00:32:54.647Z,971.41
2017-09-20T00:33:54.642Z,971.4
2017-09-20T00:34:54.635Z,971.42
2017-09-20T00:35:54.630Z,971.39
2017-09-20T00:36:54.724Z,971.4
2017-09-20T00:37:54.617Z,971.41
2017-09-20T00:38:54.611Z,971.39
2017-09-20T00:39:54.604Z,971.41
2017-09-20T00:40:54.598Z,971.39
2017-09-20T00:41:54.591Z,971.38
2017-09-20T00:42:54.584Z,971.39
2017-09-20T00:43:54.579Z,971.35
2017-09-20T00:44:54.573Z,971.38
2017-09-20T00:45:54.567Z,971.38
2017-09-20T00:46:54.561Z,971.34
2017-09-20T00:47:54.656Z,971.35
2017-09-20T00:48:54.548Z,971.38
2017-09-20T00:49:54.542Z,971.4
2017-09-20T00:50:54.536Z,971.41
2017-09-20T00:51:54.530Z,971.42
2017-09-20T00:52:54.523Z,971.41
2017-09-20T00:53:54.517Z,971.42
2017-09-20T00:54:54.513Z,971.42
2017-09-20T00:55:54.603Z,971.41
2017-09-20T00:56:54.497Z,971.42
2017-09-20T00:57:54.492Z,971.41
2017-09-20T00:58:54.485Z,971.43
2017-09-20T00:59:54.480Z,971.44
2017-09-20T01:00:54.474Z,971.4
2017-09-20T01:01:54.467Z,971.45
2017-09-20T01:02:54.462Z,971.4
2017-09-20T01:03:54.454Z,971.41
2017-09-20T01:04:54.448Z,971.43
2017-09-20T01:05:54.441Z,971.41
2017-09-20T01:06:54.436Z,971.4
2017-09-20T01:07:54.429Z,971.43
2017-09-20T01:08:54.423Z,971.41
2017-09-20T01:09:54.417Z,971.44
2017-09-20T01:10:54.410Z,971.44
2017-09-20T01:11:54.405Z,971.48
2017-09-20T02:20:49.270Z,971.47
2017-09-20T02:21:49.263Z,971.45
2017-09-20T02:22:49.258Z,971.5
2017-09-20T02:23:49.250Z,971.52
2017-09-20T02:24:49.244Z,971.5
2017-09-20T02:25:49.237Z,971.52
2017-09-20T02:26:49.231Z,971.45
2017-09-20T02:27:49.225Z,971.48
2017-09-20T02:28:49.219Z,971.49
2017-09-20T02:29:49.213Z,971.45
2017-09-20T02:30:49.207Z,971.48
2017-09-20T02:31:49.199Z,971.46
2017-09-20T02:32:49.193Z,971.48
2017-09-20T02:33:49.188Z,971.43
2017-09-20T02:34:49.181Z,971.46
2017-09-20T02:35:49.175Z,971.48
2017-09-20T02:36:49.171Z,971.5
2017-09-20T02:37:49.163Z,971.5
2017-09-20T02:38:49.157Z,971.49
2017-09-20T02:39:49.250Z,971.51
2017-09-20T02:40:49.144Z,971.43
2017-09-20T02:41:49.138Z,971.46
2017-09-20T02:42:49.131Z,971.43
2017-09-20T02:43:49.126Z,971.46
2017-09-20T02:44:49.119Z,971.45
2017-09-20T02:45:49.112Z,971.45
2017-09-20T02:46:49.106Z,971.47
2017-09-20T02:47:49.200Z,971.49
2017-09-20T02:48:49.094Z,971.47
2017-09-20T02:49:49.086Z,971.53
2017-09-20T02:50:49.080Z,971.54
2017-09-20T02:51:49.075Z,971.52
2017-09-20T02:52:49.069Z,971.56
2017-09-20T02:53:49.062Z,971.58
2017-09-20T02:54:49.055Z,971.59
2017-09-20T02:55:49.050Z,971.57
2017-09-20T02:56:49.042Z,971.62
2017-09-20T02:57:49.036Z,971.64
2017-09-20T02:58:49.030Z,971.63
2017-09-20T02:59:49.026Z,971.6
2017-09-20T03:00:49.118Z,971.67
2017-09-20T03:01:49.011Z,971.6
2017-09-20T03:02:49.005Z,971.61
2017-09-20T03:03:48.999Z,971.54
2017-09-20T03:04:48.992Z,971.63
2017-09-20T03:05:48.985Z,971.62
2017-09-20T03:06:49.080Z,971.6
2017-09-20T03:07:48.972Z,971.66
2017-09-20T03:08:48.966Z,971.62
2017-09-20T03:09:48.960Z,971.63
2017-09-20T03:10:48.954Z,971.64
2017-09-20T03:11:48.947Z,971.62
2017-09-20T03:12:48.941Z,971.61
2017-09-20T03:13:48.935Z,971.68
2017-09-20T03:14:48.930Z,971.61
2017-09-20T03:15:48.922Z,971.65
2017-09-20T03:16:49.016Z,971.66
2017-09-20T03:17:48.910Z,971.65
2017-09-20T03:18:48.902Z,971.66
2017-09-20T03:19:48.896Z,971.67
2017-09-20T03:20:48.891Z,971.65
2017-09-20T03:21:48.885Z,971.67
2017-09-20T03:22:48.978Z,971.65
2017-09-20T03:23:48.872Z,971.68
2017-09-20T03:24:48.865Z,971.66
2017-09-20T03:25:48.859Z,971.67
2017-09-20T03:26:48.853Z,971.68
2017-09-20T03:27:48.847Z,971.68
2017-09-20T03:28:48.840Z,971.67
2017-09-20T03:29:48.833Z,971.66
2017-09-20T03:30:48.834Z,971.7
2017-09-20T03:31:48.821Z,971.65
2017-09-20T03:32:48.816Z,971.68
2017-09-20T03:33:48.808Z,971.68
2017-09-20T03:34:48.802Z,971.65
2017-09-20T03:35:48.796Z,971.67
2017-09-20T03:36:48.790Z,971.64
2017-09-20T03:37:48.883Z,971.67
2017-09-20T03:38:48.777Z,971.64
2017-09-20T03:39:48.771Z,971.66
2017-09-20T03:40:48.764Z,971.63
2017-09-20T03:41:48.757Z,971.66
2017-09-20T03:42:48.752Z,971.68
2017-09-20T03:43:48.745Z,971.65
2017-09-20T03:44:48.738Z,971.65
2017-09-20T03:45:48.731Z,971.61
2017-09-20T03:46:48.727Z,971.66
2017-09-20T03:47:48.721Z,971.66
2017-09-20T03:48:48.713Z,971.7
2017-09-20T03:49:48.706Z,971.65
2017-09-20T03:50:48.701Z,971.65
2017-09-20T03:51:48.694Z,971.69
2017-09-20T03:52:48.688Z,971.66
2017-09-20T03:53:48.681Z,971.67
2017-09-20T03:54:48.776Z,971.68
2017-09-20T03:55:48.668Z,971.67
2017-09-20T03:56:48.662Z,971.7
2017-09-20T03:57:48.656Z,971.7
2017-09-20T03:58:48.650Z,971.7
2017-09-20T03:59:48.643Z,971.68
2017-09-20T04:00:48.637Z,971.71
2017-09-20T04:01:48.631Z,971.72
2017-09-20T04:02:48.624Z,971.72
2017-09-20T04:03:48.618Z,971.73
2017-09-20T04:04:48.612Z,971.71
2017-09-20T04:05:48.705Z,971.73
2017-09-20T04:06:48.599Z,971.77
2017-09-20T04:07:48.593Z,971.74
2017-09-20T04:08:48.587Z,971.75
2017-09-20T04:09:48.581Z,971.75
2017-09-20T04:10:48.574Z,971.77
2017-09-20T04:11:48.568Z,971.72
2017-09-20T04:12:48.563Z,971.75
2017-09-20T04:13:48.555Z,971.72
2017-09-20T04:14:48.549Z,971.75
2017-09-20T04:15:48.543Z,971.72
2017-09-20T04:16:48.637Z,971.75
2017-09-20T04:17:48.529Z,971.76
2017-09-20T04:18:48.523Z,971.76
2017-09-20T04:19:48.518Z,971.79
2017-09-20T04:20:48.510Z,971.78
2017-09-20T04:21:48.504Z,971.77
2017-09-20T04:22:48.499Z,971.78
2017-09-20T04:23:48.491Z,971.75
2017-09-20T04:24:48.484Z,971.8
2017-09-20T04:25:48.479Z,971.79
2017-09-20T04:26:48.473Z,971.79
2017-09-20T04:27:48.467Z,971.78
2017-09-20T04:28:48.460Z,971.79
2017-09-20T04:29:48.453Z,971.78
2017-09-20T04:30:48.447Z,971.79
2017-09-20T04:31:48.439Z,971.8
2017-09-20T04:32:48.434Z,971.81
2017-09-20T04:33:48.428Z,971.84
2017-09-20T04:34:48.422Z,971.83
2017-09-20T04:35:48.419Z,971.87
2017-09-20T04:36:48.409Z,971.85
2017-09-20T04:37:48.403Z,971.86
2017-09-20T04:38:48.396Z,971.86
2017-09-20T04:39:48.390Z,971.85
2017-09-20T04:40:48.483Z,971.88
2017-09-20T04:41:48.377Z,971.93
2017-09-20T04:42:48.370Z,971.92
2017-09-20T04:43:48.364Z,971.93
2017-09-20T04:44:48.359Z,971.93
2017-09-20T04:45:48.352Z,971.94
2017-09-20T04:46:48.345Z,971.97
2017-09-20T04:47:48.439Z,971.96
2017-09-20T04:48:48.332Z,971.95
2017-09-20T04:49:48.326Z,971.95
2017-09-20T04:50:48.319Z,971.99
2017-09-20T04:51:48.413Z,971.98
2017-09-20T04:52:48.307Z,972
2017-09-20T04:53:48.300Z,971.98
2017-09-20T04:54:48.294Z,972.01
2017-09-20T04:55:48.288Z,972.04
2017-09-20T04:56:48.282Z,971.99
2017-09-20T04:57:48.375Z,972.03
2017-09-20T04:58:48.269Z,972.03
2017-09-20T04:59:48.263Z,972.03
2017-09-20T05:00:48.256Z,972.07
2017-09-20T05:01:48.249Z,972.05
2017-09-20T05:02:48.244Z,972.03
2017-09-20T05:03:48.237Z,972.08
2017-09-20T05:04:48.230Z,972.07
2017-09-20T05:05:48.224Z,972.07
2017-09-20T05:06:48.219Z,972.08
2017-09-20T05:07:48.212Z,972.06
2017-09-20T05:08:48.205Z,972.08
2017-09-20T05:09:48.199Z,972.05
2017-09-20T05:10:48.191Z,972.04
2017-09-20T05:11:48.187Z,972.06
2017-09-20T05:12:48.179Z,972.03
2017-09-20T05:13:48.174Z,972.05
2017-09-20T05:14:48.169Z,972.08
2017-09-20T05:15:48.159Z,972.08
2017-09-20T05:16:48.154Z,972.09
2017-09-20T05:17:48.148Z,972.1
2017-09-20T05:18:48.141Z,972.1
2017-09-20T05:19:48.134Z,972.14
2017-09-20T05:20:48.127Z,972.11
2017-09-20T05:21:48.122Z,972.13
2017-09-20T05:22:48.116Z,972.13
2017-09-20T05:23:48.108Z,972.13
2017-09-20T05:24:48.103Z,972.13
2017-09-20T05:25:48.097Z,972.15
2017-09-20T05:26:48.090Z,972.16
2017-09-20T05:27:48.084Z,972.16
2017-09-20T05:28:48.077Z,972.15
2017-09-20T05:29:48.071Z,972.19
2017-09-20T05:30:48.064Z,972.16
2017-09-20T05:31:48.057Z,972.19
2017-09-20T05:32:48.054Z,972.17
2017-09-20T05:33:48.046Z,972.2
2017-09-20T05:34:48.038Z,972.2
2017-09-20T05:35:48.032Z,972.15
2017-09-20T05:36:48.026Z,972.19
2017-09-20T05:37:48.019Z,972.17
2017-09-20T05:38:48.013Z,972.19
2017-09-20T05:39:48.006Z,972.15
2017-09-20T05:40:48.001Z,972.14
2017-09-20T05:41:47.994Z,972.15
2017-09-20T05:42:47.988Z,972.16
2017-09-20T05:43:47.985Z,972.15
2017-09-20T05:44:47.974Z,972.14
2017-09-20T05:45:47.970Z,972.18
2017-09-20T05:46:47.963Z,972.17
2017-09-20T05:47:47.957Z,972.19
2017-09-20T05:48:47.950Z,972.21
2017-09-20T05:49:47.943Z,972.2
2017-09-20T05:50:47.938Z,972.18
2017-09-20T05:51:47.932Z,972.18
2017-09-20T05:52:47.925Z,972.18
2017-09-20T05:53:47.918Z,972.2
2017-09-20T05:54:47.912Z,972.16
2017-09-20T05:55:47.905Z,972.15
2017-09-20T05:56:48.001Z,972.2
2017-09-20T05:57:47.894Z,972.17
2017-09-20T05:58:47.888Z,972.16
2017-09-20T05:59:47.982Z,972.16
2017-09-20T06:00:47.877Z,972.2
2017-09-20T06:01:47.869Z,972.2
2017-09-20T06:02:47.864Z,972.19
2017-09-20T06:03:47.856Z,972.21
2017-09-20T06:04:47.850Z,972.19
2017-09-20T06:05:47.879Z,972.2
2017-09-20T06:06:47.837Z,972.22
2017-09-20T06:07:47.832Z,972.22
2017-09-20T06:08:47.825Z,972.26
2017-09-20T06:09:47.820Z,972.26
2017-09-20T06:10:47.811Z,972.27
2017-09-20T06:11:47.805Z,972.27
2017-09-20T06:12:47.799Z,972.28
2017-09-20T06:13:47.794Z,972.28
2017-09-20T06:14:47.787Z,972.28
2017-09-20T06:15:47.780Z,972.3
2017-09-20T06:16:47.774Z,972.34
2017-09-20T06:17:47.768Z,972.34
2017-09-20T06:18:47.760Z,972.31
2017-09-20T06:19:47.755Z,972.33
2017-09-20T06:20:47.748Z,972.36
2017-09-20T06:21:47.743Z,972.36
2017-09-20T06:22:47.736Z,972.35
2017-09-20T06:23:47.729Z,972.38
2017-09-20T06:24:47.754Z,972.36
2017-09-20T06:25:47.716Z,972.32
2017-09-20T06:26:47.711Z,972.36
2017-09-20T06:27:47.705Z,972.36
2017-09-20T06:28:47.697Z,972.36
2017-09-20T06:29:47.691Z,972.36
2017-09-20T06:30:47.686Z,972.34
2017-09-20T06:31:47.681Z,972.33
2017-09-20T06:32:47.672Z,972.42
2017-09-20T06:33:47.666Z,972.4
2017-09-20T06:34:47.659Z,972.43
2017-09-20T06:35:47.655Z,972.4
2017-09-20T06:36:47.647Z,972.46
2017-09-20T06:37:47.641Z,972.45
2017-09-20T06:38:47.636Z,972.41
2017-09-20T06:39:47.627Z,972.47
2017-09-20T06:40:47.621Z,972.48
2017-09-20T06:41:47.616Z,972.48
2017-09-20T06:42:47.611Z,972.5
2017-09-20T06:43:47.605Z,972.5
2017-09-20T06:44:47.603Z,972.5
2017-09-20T06:45:47.591Z,972.55
2017-09-20T06:46:47.586Z,972.57
2017-09-20T06:47:47.578Z,972.58
2017-09-20T06:48:47.571Z,972.59
2017-09-20T06:49:47.567Z,972.59
2017-09-20T06:50:47.560Z,972.62
2017-09-20T06:51:47.552Z,972.64
2017-09-20T06:52:47.547Z,972.65
2017-09-20T06:53:47.542Z,972.7
2017-09-20T06:54:47.533Z,972.69
2017-09-20T06:55:47.528Z,972.67
2017-09-20T06:56:47.523Z,972.69
2017-09-20T06:57:47.516Z,972.71
2017-09-20T06:58:47.510Z,972.75
2017-09-20T06:59:47.502Z,972.72
2017-09-20T07:00:47.496Z,972.74
2017-09-20T07:01:47.491Z,972.79
2017-09-20T07:02:47.483Z,972.77
2017-09-20T07:03:47.579Z,972.81
2017-09-20T07:04:47.471Z,972.83
2017-09-20T07:05:47.464Z,972.82
2017-09-20T07:06:47.458Z,972.86
2017-09-20T07:07:47.453Z,972.87
2017-09-20T07:08:47.446Z,972.92
2017-09-20T07:09:47.438Z,972.91
2017-09-20T07:10:47.433Z,972.91
2017-09-20T07:11:47.427Z,972.92
2017-09-20T07:12:47.420Z,972.93
2017-09-20T07:13:47.413Z,972.95
2017-09-20T07:14:47.408Z,972.98
2017-09-20T07:15:47.401Z,972.97
2017-09-20T07:16:47.494Z,973
2017-09-20T07:17:47.387Z,972.99
2017-09-20T07:18:47.381Z,973
2017-09-20T07:19:47.375Z,973
2017-09-20T07:20:47.371Z,972.96
2017-09-20T07:21:47.365Z,972.97
2017-09-20T07:22:47.358Z,972.93
2017-09-20T07:23:47.351Z,972.95
2017-09-20T07:24:47.344Z,972.89
2017-09-20T07:25:47.340Z,972.94
2017-09-20T07:26:47.331Z,972.92
2017-09-20T07:27:47.325Z,972.9
2017-09-20T07:28:47.320Z,972.91
2017-09-20T07:29:47.312Z,972.9
2017-09-20T07:30:47.305Z,972.92
2017-09-20T07:31:47.400Z,972.88
2017-09-20T07:32:47.294Z,972.93
2017-09-20T07:33:47.288Z,972.91
2017-09-20T07:34:47.280Z,972.89
2017-09-20T07:35:47.273Z,972.91
2017-09-20T07:36:47.270Z,972.88
2017-09-20T07:37:47.262Z,972.88
2017-09-20T07:38:47.256Z,972.9
2017-09-20T07:39:47.249Z,972.86
2017-09-20T07:40:47.244Z,972.87
2017-09-20T07:41:47.235Z,972.89
2017-09-20T07:42:47.229Z,972.88
2017-09-20T07:43:47.223Z,972.88
2017-09-20T07:44:47.318Z,972.91
2017-09-20T07:45:47.211Z,972.88
2017-09-20T07:46:47.203Z,972.9
2017-09-20T07:47:47.198Z,972.88
2017-09-20T07:48:47.193Z,972.91
2017-09-20T07:49:47.186Z,972.9
2017-09-20T07:50:47.179Z,972.88
2017-09-20T07:51:47.172Z,972.87
2017-09-20T07:52:47.167Z,972.84
2017-09-20T07:53:47.160Z,972.88
2017-09-20T07:54:47.153Z,972.87
2017-09-20T07:55:47.149Z,972.82
2017-09-20T07:56:47.140Z,972.83
2017-09-20T07:57:47.135Z,972.85
2017-09-20T07:58:47.132Z,972.79
2017-09-20T07:59:47.123Z,972.85
2017-09-20T08:00:47.116Z,972.84
2017-09-20T08:01:47.109Z,972.83
2017-09-20T08:02:47.103Z,972.85
2017-09-20T08:03:47.196Z,972.84
2017-09-20T08:04:47.092Z,972.83
2017-09-20T08:05:47.090Z,972.85
2017-09-20T08:06:47.078Z,972.85
2017-09-20T08:07:47.072Z,972.89
2017-09-20T08:08:47.066Z,972.86
2017-09-20T08:09:47.059Z,972.84
2017-09-20T08:10:47.061Z,972.84
2017-09-20T08:11:47.052Z,972.84
2017-09-20T08:12:47.042Z,972.82
2017-09-20T08:13:47.034Z,972.85
2017-09-20T08:14:47.128Z,972.81
2017-09-20T08:15:47.022Z,972.82
2017-09-20T08:16:47.016Z,972.88
2017-09-20T08:17:47.109Z,972.88
2017-09-20T08:18:47.003Z,972.8
2017-09-20T08:19:46.997Z,972.83
2017-09-20T08:20:46.991Z,972.81
2017-09-20T08:21:46.985Z,972.85
2017-09-20T08:22:46.978Z,972.85
2017-09-20T08:23:46.972Z,972.82
2017-09-20T08:24:46.966Z,972.81
2017-09-20T08:25:46.959Z,972.78
2017-09-20T08:26:46.955Z,972.84
2017-09-20T08:27:46.949Z,972.81
2017-09-20T08:28:46.941Z,972.79
2017-09-20T08:29:46.935Z,972.82
2017-09-20T08:30:46.929Z,972.85
2017-09-20T08:31:46.923Z,972.87
2017-09-20T08:32:46.917Z,972.86
2017-09-20T08:33:47.010Z,972.95
2017-09-20T08:34:46.904Z,972.92
2017-09-20T08:35:46.899Z,972.92
2017-09-20T08:36:46.891Z,972.92
2017-09-20T08:37:46.884Z,972.9
2017-09-20T08:38:46.881Z,972.86
2017-09-20T08:39:46.873Z,972.86
2017-09-20T08:40:46.869Z,972.86
2017-09-20T08:41:46.860Z,972.83
2017-09-20T08:42:46.855Z,972.86
2017-09-20T08:43:46.849Z,972.85
2017-09-20T08:44:46.841Z,972.85
2017-09-20T08:45:46.835Z,972.8
2017-09-20T08:46:46.829Z,972.84
2017-09-20T08:47:46.823Z,972.84
2017-09-20T08:48:46.817Z,972.83
2017-09-20T08:49:46.811Z,972.86
2017-09-20T08:50:46.806Z,972.86
2017-09-20T08:51:46.798Z,972.84
2017-09-20T08:52:46.792Z,972.88
2017-09-20T08:53:46.787Z,972.9
2017-09-20T08:54:46.781Z,972.9
2017-09-20T08:55:46.774Z,972.91
2017-09-20T08:56:46.770Z,972.9
2017-09-20T08:57:46.765Z,972.88
2017-09-20T08:58:46.755Z,972.92
2017-09-20T08:59:46.751Z,972.93
2017-09-20T09:00:46.744Z,972.94
2017-09-20T09:01:46.738Z,972.94
2017-09-20T09:02:46.732Z,972.94
2017-09-20T09:03:46.725Z,972.97
2017-09-20T09:04:46.721Z,972.99
2017-09-20T09:05:46.714Z,973.01
2017-09-20T09:06:46.706Z,973.01
2017-09-20T09:07:46.701Z,972.99
2017-09-20T09:08:46.696Z,973.03
2017-09-20T09:09:46.689Z,973.05
2017-09-20T09:10:46.682Z,973.08
2017-09-20T09:11:46.678Z,973.06
2017-09-20T09:12:46.670Z,973.05
2017-09-20T09:13:46.664Z,973.08
2017-09-20T09:14:46.657Z,973.06
2017-09-20T09:15:46.652Z,973.06
2017-09-20T09:16:46.647Z,973.04
2017-09-20T09:17:46.739Z,973.01
2017-09-20T09:18:46.633Z,973.01
2017-09-20T09:19:46.627Z,973
2017-09-20T09:20:46.620Z,972.98
2017-09-20T09:21:46.616Z,972.98
2017-09-20T09:22:46.609Z,973
2017-09-20T09:23:46.603Z,973.03
2017-09-20T09:24:46.596Z,973.01
2017-09-20T09:25:46.591Z,973.01
2017-09-20T09:26:46.584Z,973.03
2017-09-20T09:27:46.578Z,973.02
2017-09-20T09:28:46.572Z,973.03
2017-09-20T09:29:46.566Z,973.03
2017-09-20T09:30:46.561Z,973.01
2017-09-20T09:31:46.554Z,973.05
2017-09-20T09:32:46.549Z,973.04
2017-09-20T09:33:46.544Z,973.03
2017-09-20T09:34:46.537Z,973.05
2017-09-20T09:35:46.529Z,973.05
2017-09-20T09:36:46.524Z,973.08
2017-09-20T09:37:46.517Z,973.09
2017-09-20T09:38:46.511Z,973.1
2017-09-20T09:39:46.505Z,973.11
2017-09-20T09:40:46.499Z,973.14
2017-09-20T09:41:46.494Z,973.16
2017-09-20T09:42:46.488Z,973.14
2017-09-20T09:43:46.482Z,973.17
2017-09-20T09:44:46.476Z,973.15
2017-09-20T09:45:46.469Z,973.17
2017-09-20T09:46:46.463Z,973.16
2017-09-20T09:47:46.457Z,973.16
2017-09-20T09:48:46.451Z,973.15
2017-09-20T09:49:46.545Z,973.18
2017-09-20T09:50:46.438Z,973.15
2017-09-20T09:51:46.432Z,973.21
2017-09-20T09:52:46.427Z,973.2
2017-09-20T09:53:46.420Z,973.18
2017-09-20T09:54:46.514Z,973.19
2017-09-20T09:55:46.409Z,973.21
2017-09-20T09:56:46.427Z,973.21
2017-09-20T09:57:46.396Z,973.19
2017-09-20T09:58:46.391Z,973.22
2017-09-20T09:59:46.386Z,973.19
2017-09-20T10:00:46.377Z,973.2
2017-09-20T10:01:46.372Z,973.17
2017-09-20T10:02:46.367Z,973.18
2017-09-20T10:03:46.361Z,973.16
2017-09-20T10:04:46.354Z,973.17
2017-09-20T10:05:46.349Z,973.18
2017-09-20T10:06:46.343Z,973.14
2017-09-20T10:07:46.338Z,973.13
2017-09-20T10:08:46.330Z,973.09
2017-09-20T10:09:46.325Z,973.1
2017-09-20T10:10:46.319Z,973.04
2017-09-20T10:11:46.312Z,973.07
2017-09-20T10:12:46.308Z,973.07
2017-09-20T10:13:46.301Z,973.03
2017-09-20T10:14:46.298Z,973.05
2017-09-20T10:15:46.290Z,972.99
2017-09-20T10:16:46.283Z,973
2017-09-20T10:17:46.277Z,973.01
2017-09-20T10:18:46.272Z,973.04
2017-09-20T10:19:46.265Z,973.04
2017-09-20T10:20:46.260Z,973.04
2017-09-20T10:21:46.254Z,973.07
2017-09-20T10:22:46.246Z,973.05
2017-09-20T10:23:46.240Z,973.03
2017-09-20T10:24:46.235Z,973.04
2017-09-20T10:25:46.230Z,973.05
2017-09-20T10:26:46.223Z,973.03
2017-09-20T10:27:46.317Z,973.01
2017-09-20T10:28:46.211Z,973.02
2017-09-20T10:29:46.206Z,972.99
2017-09-20T10:30:46.201Z,972.99
2017-09-20T10:31:46.195Z,973.03
2017-09-20T10:32:46.188Z,973
2017-09-20T10:33:46.182Z,973.01
2017-09-20T10:34:46.277Z,972.99
2017-09-20T10:35:46.173Z,972.97
2017-09-20T10:36:46.166Z,973.02
2017-09-20T10:37:46.162Z,972.98
2017-09-20T10:38:46.154Z,972.95
2017-09-20T10:39:46.148Z,973
2017-09-20T10:40:46.141Z,972.93
2017-09-20T10:41:46.136Z,972.91
2017-09-20T10:42:46.130Z,972.94
2017-09-20T10:43:46.125Z,972.92
2017-09-20T10:44:46.117Z,972.94
2017-09-20T10:45:46.113Z,972.96
2017-09-20T10:46:46.105Z,972.95
2017-09-20T10:47:46.200Z,972.96
2017-09-20T10:48:46.094Z,972.87
2017-09-20T10:49:46.087Z,972.86
2017-09-20T10:50:46.082Z,972.85
2017-09-20T10:51:46.076Z,972.81
2017-09-20T10:52:46.070Z,972.8
2017-09-20T10:53:46.064Z,972.81
2017-09-20T10:54:46.059Z,972.82
2017-09-20T10:55:46.152Z,972.82
2017-09-20T10:56:46.048Z,972.86
2017-09-20T10:57:46.041Z,972.83
2017-09-20T10:58:46.035Z,972.79
2017-09-20T10:59:46.029Z,972.81
2017-09-20T11:00:46.026Z,972.82
2017-09-20T11:01:46.017Z,972.81
2017-09-20T11:02:46.011Z,972.85
2017-09-20T11:03:46.006Z,972.84
2017-09-20T11:04:46.000Z,972.83
2017-09-20T11:05:45.995Z,972.87
2017-09-20T11:06:45.986Z,972.83
2017-09-20T11:07:46.083Z,972.83
2017-09-20T11:08:45.977Z,972.8
2017-09-20T11:09:45.973Z,972.85
2017-09-20T11:10:45.965Z,972.8
2017-09-20T11:11:45.959Z,972.83
2017-09-20T11:12:45.957Z,972.77
2017-09-20T11:13:45.947Z,972.79
2017-09-20T11:14:45.942Z,972.78
2017-09-20T11:15:45.936Z,972.78
2017-09-20T11:16:45.930Z,972.8
2017-09-20T11:17:45.925Z,972.75
2017-09-20T11:18:45.919Z,972.78
2017-09-20T11:19:45.913Z,972.77
2017-09-20T11:20:45.907Z,972.75
2017-09-20T11:21:45.901Z,972.7
2017-09-20T11:22:45.895Z,972.7
2017-09-20T11:23:45.890Z,972.67
2017-09-20T11:24:45.886Z,972.61
2017-09-20T11:25:45.877Z,972.62
2017-09-20T11:26:45.872Z,972.67
2017-09-20T11:27:45.867Z,972.67
2017-09-20T11:28:45.960Z,972.66
2017-09-20T11:29:45.854Z,972.71
2017-09-20T11:30:45.849Z,972.68
2017-09-20T11:31:45.844Z,972.67
2017-09-20T11:32:45.838Z,972.65
2017-09-20T11:33:45.832Z,972.64
2017-09-20T11:34:45.827Z,972.61
2017-09-20T11:35:45.820Z,972.58
2017-09-20T11:36:45.814Z,972.63
2017-09-20T11:37:45.809Z,972.61
2017-09-20T11:38:45.803Z,972.63
2017-09-20T11:39:45.796Z,972.65
2017-09-20T11:40:45.791Z,972.64
2017-09-20T11:41:45.787Z,972.72
2017-09-20T11:42:45.880Z,972.73
2017-09-20T11:43:45.777Z,972.77
2017-09-20T11:44:45.769Z,972.79
2017-09-20T11:45:45.764Z,972.81
2017-09-20T11:46:45.756Z,972.82
2017-09-20T11:47:45.753Z,972.82
2017-09-20T11:48:45.746Z,972.85
2017-09-20T11:49:45.741Z,972.84
2017-09-20T11:50:45.734Z,972.84
2017-09-20T11:51:45.727Z,972.86
2017-09-20T11:52:45.722Z,972.85
2017-09-20T11:53:45.716Z,972.9
2017-09-20T11:54:45.709Z,972.91
2017-09-20T11:55:45.705Z,972.91
2017-09-20T11:56:45.698Z,972.92
2017-09-20T11:57:45.693Z,972.93
2017-09-20T11:58:45.686Z,972.97
2017-09-20T11:59:45.781Z,972.95
2017-09-20T12:00:45.675Z,972.96
2017-09-20T12:01:45.669Z,972.96
2017-09-20T12:02:45.664Z,973.01
2017-09-20T12:03:45.657Z,972.97
2017-09-20T12:04:45.653Z,972.99
2017-09-20T12:05:45.647Z,972.96
2017-09-20T12:06:45.641Z,972.95
2017-09-20T12:07:45.637Z,972.95
2017-09-20T12:08:45.628Z,972.98
2017-09-20T12:09:45.624Z,972.97
2017-09-20T12:10:45.619Z,972.92
2017-09-20T12:11:45.612Z,972.92
2017-09-20T12:12:45.605Z,972.92
2017-09-20T12:13:45.600Z,972.86
2017-09-20T12:14:45.595Z,972.86
2017-09-20T12:15:45.589Z,972.89
2017-09-20T12:16:45.583Z,972.84
2017-09-20T12:17:45.577Z,972.86
2017-09-20T12:18:45.570Z,972.86
2017-09-20T12:19:45.564Z,972.85
2017-09-20T12:20:45.660Z,972.84
2017-09-20T12:21:45.558Z,972.8
2017-09-20T12:22:45.549Z,972.84
2017-09-20T12:23:45.641Z,972.83
2017-09-20T12:24:45.537Z,972.83
2017-09-20T12:25:45.530Z,972.78
2017-09-20T12:26:45.525Z,972.75
2017-09-20T12:27:45.520Z,972.81
2017-09-20T12:28:45.514Z,972.73
2017-09-20T12:29:45.508Z,972.72
2017-09-20T12:30:45.502Z,972.74
2017-09-20T12:31:45.496Z,972.69
2017-09-20T12:32:45.491Z,972.74
2017-09-20T12:33:45.485Z,972.72
2017-09-20T12:34:45.482Z,972.73
2017-09-20T12:35:45.473Z,972.76
2017-09-20T12:36:45.468Z,972.78
2017-09-20T12:37:45.462Z,972.82
2017-09-20T12:38:45.456Z,972.82
2017-09-20T12:39:45.451Z,972.79
2017-09-20T12:40:45.447Z,972.81
2017-09-20T12:41:45.440Z,972.8
2017-09-20T12:42:45.433Z,972.83
2017-09-20T12:43:45.427Z,972.8
2017-09-20T12:44:45.421Z,972.76
2017-09-20T12:45:45.415Z,972.73
2017-09-20T12:46:45.409Z,972.72
2017-09-20T12:47:45.404Z,972.68
2017-09-20T12:48:45.397Z,972.69
2017-09-20T12:49:45.392Z,972.68
2017-09-20T12:50:45.387Z,972.72
2017-09-20T12:51:45.380Z,972.67
2017-09-20T12:52:45.375Z,972.63
2017-09-20T12:53:45.469Z,972.65
2017-09-20T12:54:45.364Z,972.65
2017-09-20T12:55:45.508Z,972.65
2017-09-20T12:56:45.352Z,972.6
2017-09-20T12:57:45.346Z,972.6
2017-09-20T12:58:45.341Z,972.59
2017-09-20T12:59:45.334Z,972.62
2017-09-20T13:00:45.329Z,972.59
2017-09-20T13:01:45.323Z,972.57
2017-09-20T13:02:45.318Z,972.57
2017-09-20T13:03:45.310Z,972.56
2017-09-20T13:04:45.405Z,972.56
2017-09-20T13:05:45.299Z,972.52
2017-09-20T13:06:45.295Z,972.51
2017-09-20T13:07:45.287Z,972.49
2017-09-20T13:08:45.282Z,972.46
2017-09-20T13:09:45.276Z,972.47
2017-09-20T13:10:45.271Z,972.49
2017-09-20T13:11:45.265Z,972.48
2017-09-20T13:12:45.259Z,972.5
2017-09-20T13:13:45.254Z,972.45
2017-09-20T13:14:45.249Z,972.5
2017-09-20T13:15:45.242Z,972.45
2017-09-20T13:16:45.238Z,972.44
2017-09-20T13:17:45.331Z,972.45
2017-09-20T13:18:45.225Z,972.46
2017-09-20T13:19:45.220Z,972.48
2017-09-20T13:20:45.214Z,972.43
2017-09-20T13:21:45.208Z,972.44
2017-09-20T13:22:45.202Z,972.42
2017-09-20T13:23:45.197Z,972.4
2017-09-20T13:24:45.191Z,972.38
2017-09-20T13:25:45.186Z,972.42
2017-09-20T13:26:45.179Z,972.4
2017-09-20T13:27:45.174Z,972.42
2017-09-20T13:28:45.168Z,972.39
2017-09-20T13:29:45.161Z,972.35
2017-09-20T13:30:45.157Z,972.26
2017-09-20T13:31:45.153Z,972.28
2017-09-20T13:32:45.145Z,972.26
2017-09-20T13:33:45.139Z,972.26
2017-09-20T13:34:45.234Z,972.24
2017-09-20T13:35:45.128Z,972.24
2017-09-20T13:36:45.121Z,972.27
2017-09-20T13:37:45.114Z,972.25
2017-09-20T13:38:45.110Z,972.25
2017-09-20T13:39:45.105Z,972.33